WIMM/MES METAR and TAF weather

Enter ICAO airport designator
Station Type Date Time Source
WIMM METAR 2019/12/08 03:30 UTC NOAA

WIMM 080330Z 26005KT 9999 SCT017 28/25 Q1013 NOSIG


Station Type Date Time Source
WIMM Decoded METAR 2019/12/08 03:30 UTC NOAA

Medan / Polonia, Indonesia (WIMM) 03-34N 098-41E 25M
Dec 07, 2019 - 10:30 PM EST / 2019.12.08 0330 UTC
Wind: from the W (260 degrees) at 6 MPH (5 KT):0
Visibility: greater than 7 mile(s):0
Sky conditions: partly cloudy
Temperature: 82 F (28 C)
Dew Point: 77 F (25 C)
Relative Humidity: 83%
Pressure (altimeter): 29.91 in. Hg (1013 hPa)
ob: WIMM 080330Z 26005KT 9999 SCT017 28/25 Q1013 NOSIG
cycle: 3

Station Type Date Time Source
WIMM TAF 2019/12/07 18:45 UTC NOAA

TAF WIMM 071700Z 0718/0818 23004KT 4000 HZ SCT017
BECMG 0803/0805 34008KT 8000 NSW

Example: see airport list